Nearby METAR Reports

 

KMGE - Dobbins Afb/Marietta, Ga, USA
Distance from station: ENE 10mi, 17km
Updated: Tue, 27-Jun-2017 8:55am EDT
Mostly cloudy
Mostly cloudy
 Wind from WNW
Wind: WNW 6 mph , 9 km/h
Temperature: 73°F , 23°C
Dew Point: 59°F , 15°C
Humidity: 61%
Barometer: 30.10 inHg , 1019.3 hPa
Clouds: Mostly cloudy
Visibility: 10 miles , 16 km
Cloud details: Partly cloudy 15000 ft
Mostly cloudy 25000 ft
2017/06/27 12:55 KMGE 271255Z 30005KT 10SM SCT150 BKN250 23/15 A3010 RMK AO2A SLP184 T02260146 $
KFTY - Fulton, Ga, USA
Distance from station: ESE 11mi, 18km
Updated: Tue, 27-Jun-2017 9:53am EDT
Clear
Clear
 Wind from N
Wind: N 10 mph , 17 km/h
Temperature: 77°F , 25°C
Dew Point: 61°F , 16°C
Humidity: 57%
Barometer: 30.11 inHg , 1019.6 hPa
Clouds: Clear
Visibility: 10 miles , 16 km
2017/06/27 13:53 KFTY 271353Z 35009KT 10SM CLR 25/16 A3011 RMK AO2 SLP187 T02500161
 
KRYY - Marietta Mccolum, Ga, USA
Distance from station: NNE 12mi, 19km
Updated: Tue, 27-Jun-2017 9:47am EDT
Partly cloudy
Partly cloudy
 Wind from NNW
Wind: NNW 5 mph , 7 km/h
Temperature: 75°F , 24°C
Dew Point: 61°F , 16°C
Humidity: 61%
Barometer: 30.13 inHg , 1020.3 hPa
Clouds: Partly cloudy
Visibility: 10 miles , 16 km
Cloud details: Partly cloudy 15000 ft
2017/06/27 13:47 KRYY 271347Z 33004KT 10SM SCT150 24/16 A3013
KPUJ - Paulding, Ga, USA
Distance from station: WNW 15mi, 24km
Updated: Tue, 27-Jun-2017 9:55am EDT
Clear
Clear
 Wind from N
Wind: N 7 mph , 11 km/h
Temperature: 77°F , 25°C
Dew Point: 64°F , 18°C
Humidity: 65%
Barometer: 30.13 inHg , 1020.3 hPa
Clouds: Clear
Visibility: 10 miles , 16 km
2017/06/27 13:55 KPUJ 271355Z AUTO 36006KT 10SM CLR 25/18 A3013 RMK AO2
 
KATL - Atlanta, Ga, USA
Distance from station: SE 21mi, 33km
Updated: Tue, 27-Jun-2017 9:52am EDT
Partly cloudy
Partly cloudy
 Wind from NNW
Wind: NNW 10 mph , 17 km/h
Temperature: 79°F , 26°C
Dew Point: 57°F , 14°C
Humidity: 48%
Barometer: 30.11 inHg , 1019.6 hPa
Clouds: Partly cloudy
Visibility: 10 miles , 16 km
Cloud details: Few Clouds 12000 ft
Few Clouds 20000 ft
Partly cloudy 25000 ft
2017/06/27 13:52 KATL 271352Z 34009KT 10SM FEW120 FEW200 SCT250 26/14 A3011 RMK AO2 SLP186 T02560144
KVPC - Cartersville, Ga, USA
Distance from station: NNW 21mi, 34km
Updated: Tue, 27-Jun-2017 9:53am EDT
Clear
Clear
 Wind from N
Wind: N 6 mph , 9 km/h
Temperature: 73°F , 23°C
Dew Point: 63°F , 17°C
Humidity: 69%
Barometer: 30.12 inHg , 1020 hPa
Clouds: Clear
Visibility: 10 miles , 16 km
2017/06/27 13:53 KVPC 271353Z AUTO 35005KT 10SM CLR 23/17 A3012 RMK AO2 SLP188 T02280167
 
KPDK - Peachtree/Dekalb, Ga, USA
Distance from station: E 22mi, 36km
Updated: Tue, 27-Jun-2017 9:53am EDT
Clear
Clear
 Wind from NW
Wind: NW 7 mph , 11 km/h
Temperature: 79°F , 26°C
Dew Point: 57°F , 14°C
Humidity: 48%
Barometer: 30.11 inHg , 1019.6 hPa
Clouds: Clear
Visibility: 10 miles , 16 km
2017/06/27 13:53 KPDK 271353Z 31006KT 10SM CLR 26/14 A3011 RMK AO2 SLP180 T02560144
KCTJ - Carrollton/Gray, Ga, USA
Distance from station: WSW 31mi, 50km
Updated: Tue, 27-Jun-2017 9:55am EDT
Clear
Clear
 Wind from N
Wind: N 5 mph , 7 km/h
Temperature: 75°F , 24°C
Dew Point: 59°F , 15°C
Humidity: 57%
Barometer: 30.16 inHg , 1021.3 hPa
Clouds: Clear
Visibility: 10 miles , 16 km
2017/06/27 13:55 KCTJ 271355Z AUTO 35004KT 10SM CLR 24/15 A3016 RMK AO2 T02390148
 
KCNI - Canton/Cherokee, Ga, USA
Distance from station: NNE 35mi, 56km
Updated: Tue, 27-Jun-2017 9:55am EDT
Clear
Clear
 Wind from NNW
Wind: NNW 3 mph , 6 km/h
Temperature: 73°F , 23°C
Dew Point: 61°F , 16°C
Humidity: 65%
Barometer: 30.13 inHg , 1020.3 hPa
Clouds: Clear
Visibility: 10 miles , 16 km
2017/06/27 13:55 KCNI 271355Z AUTO 33003KT 10SM CLR 23/16 A3013 RMK AO2
KFFC - Peachtree City, Ga, USA
Distance from station: S 36mi, 58km
Updated: Tue, 27-Jun-2017 9:53am EDT
Clear
Clear
 Wind from N
Wind: N 8 mph , 13 km/h
Temperature: 77°F , 25°C
Dew Point: 61°F , 16°C
Humidity: 57%
Barometer: 30.11 inHg , 1019.6 hPa
Clouds: Clear
Visibility: 10 miles , 16 km
2017/06/27 13:53 KFFC 271353Z AUTO 36007KT 10SM CLR 25/16 A3011 RMK AO2 SLP190 T02500161
 
KCCO - Newnan, Ga, USA
Distance from station: S 38mi, 61km
Updated: Tue, 27-Jun-2017 9:55am EDT
Partly cloudy
Partly cloudy
 Wind from N
Wind: N 9 mph , 15 km/h
Temperature: 77°F , 25°C
Dew Point: 63°F , 17°C
Humidity: 61%
Barometer: 30.11 inHg , 1019.6 hPa
Clouds: Partly cloudy
Visibility: 10 miles , 16 km
Cloud details: Partly cloudy 12000 ft
2017/06/27 13:55 KCCO 271355Z AUTO 36008KT 10SM SCT120 25/17 A3011 RMK AO2 T02520171
KLZU - Lawrenceville, Ga, USA
Distance from station: ENE 42mi, 68km
Updated: Tue, 27-Jun-2017 9:45am EDT
Clear
Clear
 Wind from NNW
Wind: NNW 8 mph , 13 km/h
Temperature: 73°F , 23°C
Dew Point: 61°F , 16°C
Humidity: 65%
Barometer: 30.11 inHg , 1019.6 hPa
Clouds: Clear
Visibility: 10 miles , 16 km
2017/06/27 13:45 KLZU 271345Z 33007KT 10SM CLR 23/16 A3011 RMK ATIS C. RWY 25. VIS APCH...SU
 
KRMG - Rome, Ga, USA
Distance from station: NW 44mi, 70km
Updated: Tue, 27-Jun-2017 9:53am EDT
Clear
Clear
 Wind from N
Wind: N 3 mph , 6 km/h
Temperature: 75°F , 24°C
Dew Point: 63°F , 17°C
Humidity: 65%
Barometer: 30.11 inHg , 1019.6 hPa
Clouds: Clear
Visibility: 10 miles , 16 km
2017/06/27 13:53 KRMG 271353Z AUTO 36003KT 10SM CLR 24/17 A3011 RMK AO2 SLP187 T02440167
K6A2 - Griffin-Spalding, Ga, USA
Distance from station: SSE 49mi, 80km
Updated: Tue, 27-Jun-2017 9:55am EDT
Partly cloudy
Partly cloudy
 Wind from calm
Wind: Calm
Temperature: 79°F , 26°C
Dew Point: 63°F , 17°C
Humidity: 58%
Barometer: 30.11 inHg , 1019.6 hPa
Clouds: Partly cloudy
Visibility: 10 miles , 16 km
Cloud details: Partly cloudy 12000 ft
2017/06/27 13:55 K6A2 271355Z AUTO 00000KT 10SM SCT120 26/17 A3011 RMK AO2